sensor_id;sensor_type;location;lat;lon;timestamp;pressure;altitude;pressure_sealevel;temperature;humidity
52797;BME280;38666;43.348;12.584;2023-02-08T06:54:05;97099.41;;;-1.31;66.11
52797;BME280;38666;43.348;12.584;2023-02-08T06:56:31;97105.66;;;-1.17;66.00
52797;BME280;38666;43.348;12.584;2023-02-08T06:58:56;97102.69;;;-0.96;63.72
52797;BME280;38666;43.348;12.584;2023-02-08T07:01:22;97111.03;;;-0.78;63.60
52797;BME280;38666;43.348;12.584;2023-02-08T07:03:47;97115.69;;;-0.65;62.95
52797;BME280;38666;43.348;12.584;2023-02-08T07:06:15;97119.81;;;-0.53;62.26
52797;BME280;38666;43.348;12.584;2023-02-08T07:08:41;97112.19;;;-0.46;61.84
52797;BME280;38666;43.348;12.584;2023-02-08T07:11:12;97115.25;;;0.00;60.24
52797;BME280;38666;43.348;12.584;2023-02-08T07:13:38;97110.28;;;0.07;58.55
52797;BME280;38666;43.348;12.584;2023-02-08T07:16:05;97103.72;;;0.14;57.80
52797;BME280;38666;43.348;12.584;2023-02-08T07:18:31;97111.66;;;0.05;57.82
52797;BME280;38666;43.348;12.584;2023-02-08T07:20:57;97116.28;;;0.32;56.60
52797;BME280;38666;43.348;12.584;2023-02-08T07:23:22;97122.72;;;1.16;54.00
52797;BME280;38666;43.348;12.584;2023-02-08T07:26:02;97126.28;;;0.74;54.32
52797;BME280;38666;43.348;12.584;2023-02-08T07:28:28;97127.44;;;0.68;54.58
52797;BME280;38666;43.348;12.584;2023-02-08T07:30:54;97137.03;;;0.74;54.88
52797;BME280;38666;43.348;12.584;2023-02-08T07:33:20;97141.47;;;1.07;54.02
52797;BME280;38666;43.348;12.584;2023-02-08T07:35:46;97138.28;;;2.02;51.21
52797;BME280;38666;43.348;12.584;2023-02-08T07:38:11;97139.28;;;2.38;51.06
52797;BME280;38666;43.348;12.584;2023-02-08T07:40:37;97126.88;;;3.18;48.10
52797;BME280;38666;43.348;12.584;2023-02-08T07:43:02;97113.69;;;3.88;46.18
52797;BME280;38666;43.348;12.584;2023-02-08T07:45:28;97114.34;;;3.49;46.33
52797;BME280;38666;43.348;12.584;2023-02-08T07:47:53;97114.78;;;3.78;45.15
52797;BME280;38666;43.348;12.584;2023-02-08T07:50:19;97113.63;;;4.62;43.52
52797;BME280;38666;43.348;12.584;2023-02-08T07:52:44;97124.28;;;4.19;44.74
52797;BME280;38666;43.348;12.584;2023-02-08T07:55:12;97129.88;;;5.23;42.87
52797;BME280;38666;43.348;12.584;2023-02-08T07:57:45;97125.84;;;5.29;41.49
52797;BME280;38666;43.348;12.584;2023-02-08T08:00:13;97126.16;;;6.13;40.30
52797;BME280;38666;43.348;12.584;2023-02-08T08:02:39;97125.63;;;6.32;39.78
52797;BME280;38666;43.348;12.584;2023-02-08T08:05:05;97124.25;;;7.51;37.01
52797;BME280;38666;43.348;12.584;2023-02-08T08:07:30;97114.13;;;6.48;38.21
52797;BME280;38666;43.348;12.584;2023-02-08T08:09:56;97127.25;;;6.58;37.50
52797;BME280;38666;43.348;12.584;2023-02-08T08:12:21;97114.94;;;6.98;37.26
52797;BME280;38666;43.348;12.584;2023-02-08T08:14:49;97112.34;;;6.77;36.92
52797;BME280;38666;43.348;12.584;2023-02-08T08:17:14;97107.75;;;7.44;36.65
52797;BME280;38666;43.348;12.584;2023-02-08T08:19:40;97113.22;;;8.01;34.75
52797;BME280;38666;43.348;12.584;2023-02-08T08:22:05;97100.84;;;8.65;35.06
52797;BME280;38666;43.348;12.584;2023-02-08T08:24:31;97112.16;;;8.06;34.06
52797;BME280;38666;43.348;12.584;2023-02-08T08:27:00;97112.56;;;7.09;35.30
52797;BME280;38666;43.348;12.584;2023-02-08T08:29:26;97111.72;;;8.65;34.16
52797;BME280;38666;43.348;12.584;2023-02-08T08:31:51;97112.00;;;7.86;34.73
52797;BME280;38666;43.348;12.584;2023-02-08T08:34:17;97112.22;;;8.54;33.71
52797;BME280;38666;43.348;12.584;2023-02-08T08:36:42;97110.44;;;10.30;30.72
52797;BME280;38666;43.348;12.584;2023-02-08T08:39:08;97103.88;;;10.11;31.39
52797;BME280;38666;43.348;12.584;2023-02-08T08:41:33;97101.09;;;11.28;29.25
52797;BME280;38666;43.348;12.584;2023-02-08T08:44:01;97099.88;;;10.71;30.22
52797;BME280;38666;43.348;12.584;2023-02-08T08:46:27;97100.50;;;11.15;29.55
52797;BME280;38666;43.348;12.584;2023-02-08T08:48:52;97110.50;;;9.90;30.94
52797;BME280;38666;43.348;12.584;2023-02-08T08:51:18;97097.94;;;9.85;31.21
52797;BME280;38666;43.348;12.584;2023-02-08T08:53:43;97096.69;;;10.46;30.10
52797;BME280;38666;43.348;12.584;2023-02-08T08:56:09;97112.81;;;9.68;31.15
52797;BME280;38666;43.348;12.584;2023-02-08T08:58:34;97109.72;;;9.90;30.61
52797;BME280;38666;43.348;12.584;2023-02-08T09:01:00;97121.84;;;7.91;32.96
52797;BME280;38666;43.348;12.584;2023-02-08T09:03:26;97107.66;;;8.59;33.83
52797;BME280;38666;43.348;12.584;2023-02-08T09:05:52;97110.06;;;10.08;31.92
52797;BME280;38666;43.348;12.584;2023-02-08T09:08:18;97107.94;;;10.64;31.12
52797;BME280;38666;43.348;12.584;2023-02-08T09:10:44;97096.75;;;12.69;27.43
52797;BME280;38666;43.348;12.584;2023-02-08T09:13:09;97106.38;;;10.20;30.33
52797;BME280;38666;43.348;12.584;2023-02-08T09:15:39;97104.97;;;11.89;29.00
52797;BME280;38666;43.348;12.584;2023-02-08T09:18:05;97102.66;;;13.31;26.79
52797;BME280;38666;43.348;12.584;2023-02-08T09:20:30;97108.75;;;13.58;26.55
52797;BME280;38666;43.348;12.584;2023-02-08T09:22:56;97105.66;;;10.66;29.73
52797;BME280;38666;43.348;12.584;2023-02-08T09:25:22;97106.78;;;13.63;26.10
52797;BME280;38666;43.348;12.584;2023-02-08T09:27:47;97114.66;;;10.70;29.79
52797;BME280;38666;43.348;12.584;2023-02-08T09:30:13;97119.66;;;11.15;29.82
52797;BME280;38666;43.348;12.584;2023-02-08T09:32:38;97113.13;;;12.16;27.94
52797;BME280;38666;43.348;12.584;2023-02-08T09:35:05;97111.84;;;13.53;26.48
52797;BME280;38666;43.348;12.584;2023-02-08T09:37:31;97130.44;;;13.93;25.57
52797;BME280;38666;43.348;12.584;2023-02-08T09:39:56;97123.75;;;12.67;26.70
52797;BME280;38666;43.348;12.584;2023-02-08T09:42:47;97132.06;;;9.95;30.08
52797;BME280;38666;43.348;12.584;2023-02-08T09:48:21;97117.69;;;9.79;31.08
52797;BME280;38666;43.348;12.584;2023-02-08T09:53:49;97138.28;;;13.23;26.84
52797;BME280;38666;43.348;12.584;2023-02-08T09:56:29;97133.13;;;11.89;26.99
52797;BME280;38666;43.348;12.584;2023-02-08T09:58:58;97125.66;;;10.07;30.51
52797;BME280;38666;43.348;12.584;2023-02-08T10:01:31;97147.31;;;8.88;32.14
52797;BME280;38666;43.348;12.584;2023-02-08T10:07:09;97133.38;;;7.71;34.34
52797;BME280;38666;43.348;12.584;2023-02-08T10:09:35;97146.16;;;6.55;36.72
52797;BME280;38666;43.348;12.584;2023-02-08T10:14:53;97150.69;;;8.37;34.62
52797;BME280;38666;43.348;12.584;2023-02-08T10:26:26;97143.66;;;11.87;28.98
52797;BME280;38666;43.348;12.584;2023-02-08T10:31:58;97155.00;;;14.97;25.78
52797;BME280;38666;43.348;12.584;2023-02-08T10:34:45;97142.78;;;15.38;24.97
52797;BME280;38666;43.348;12.584;2023-02-08T10:37:20;97145.34;;;16.07;24.70
52797;BME280;38666;43.348;12.584;2023-02-08T10:39:49;97147.09;;;15.39;24.51
52797;BME280;38666;43.348;12.584;2023-02-08T10:42:21;97146.34;;;15.16;24.92
52797;BME280;38666;43.348;12.584;2023-02-08T10:45:13;97134.47;;;16.49;23.66
52797;BME280;38666;43.348;12.584;2023-02-08T10:47:49;97144.03;;;17.37;23.03
52797;BME280;38666;43.348;12.584;2023-02-08T10:52:53;97119.66;;;16.29;23.58
52797;BME280;38666;43.348;12.584;2023-02-08T10:55:19;97146.31;;;17.45;23.02
52797;BME280;38666;43.348;12.584;2023-02-08T10:57:47;97134.56;;;17.41;22.92
52797;BME280;38666;43.348;12.584;2023-02-08T11:00:25;97135.44;;;17.27;22.78
52797;BME280;38666;43.348;12.584;2023-02-08T11:02:51;97140.88;;;17.38;22.19
52797;BME280;38666;43.348;12.584;2023-02-08T11:08:04;97134.94;;;16.37;23.30
52797;BME280;38666;43.348;12.584;2023-02-08T11:10:29;97139.63;;;14.52;26.02
52797;BME280;38666;43.348;12.584;2023-02-08T11:12:58;97117.47;;;15.83;23.97
52797;BME280;38666;43.348;12.584;2023-02-08T11:18:26;97132.94;;;14.49;25.80
52797;BME280;38666;43.348;12.584;2023-02-08T11:20:59;97126.78;;;13.59;26.56
52797;BME280;38666;43.348;12.584;2023-02-08T11:23:29;97123.94;;;14.89;25.27
52797;BME280;38666;43.348;12.584;2023-02-08T11:29:00;97133.34;;;14.44;25.38
52797;BME280;38666;43.348;12.584;2023-02-08T11:31:26;97130.97;;;12.06;28.46
52797;BME280;38666;43.348;12.584;2023-02-08T11:34:18;97120.16;;;11.52;28.89
52797;BME280;38666;43.348;12.584;2023-02-08T11:36:47;97137.97;;;10.41;31.33
52797;BME280;38666;43.348;12.584;2023-02-08T11:39:25;97136.97;;;10.29;31.89
52797;BME280;38666;43.348;12.584;2023-02-08T11:41:55;97133.34;;;10.92;30.79
52797;BME280;38666;43.348;12.584;2023-02-08T11:44:26;97136.94;;;10.49;30.89
52797;BME280;38666;43.348;12.584;2023-02-08T11:46:53;97124.78;;;10.66;31.13
52797;BME280;38666;43.348;12.584;2023-02-08T11:49:22;97127.69;;;10.34;32.19
52797;BME280;38666;43.348;12.584;2023-02-08T11:51:48;97134.41;;;10.60;31.77
52797;BME280;38666;43.348;12.584;2023-02-08T11:54:54;97118.03;;;10.60;31.27
52797;BME280;38666;43.348;12.584;2023-02-08T11:57:22;97123.06;;;9.55;32.74
52797;BME280;38666;43.348;12.584;2023-02-08T11:59:50;97104.00;;;8.83;34.08
52797;BME280;38666;43.348;12.584;2023-02-08T12:02:34;97121.44;;;7.89;35.80
52797;BME280;38666;43.348;12.584;2023-02-08T12:05:01;97115.97;;;7.60;36.21
52797;BME280;38666;43.348;12.584;2023-02-08T12:07:39;97106.47;;;7.82;36.03
52797;BME280;38666;43.348;12.584;2023-02-08T12:31:37;97085.72;;;6.33;38.91
52797;BME280;38666;43.348;12.584;2023-02-08T12:34:34;97105.44;;;6.67;38.38
52797;BME280;38666;43.348;12.584;2023-02-08T12:46:15;97081.22;;;9.67;31.99
52797;BME280;38666;43.348;12.584;2023-02-08T12:57:02;97075.34;;;6.60;39.57
52797;BME280;38666;43.348;12.584;2023-02-08T12:59:46;97077.03;;;6.52;39.77
52797;BME280;38666;43.348;12.584;2023-02-08T13:02:16;97078.28;;;5.96;40.99
52797;BME280;38666;43.348;12.584;2023-02-08T13:04:51;97068.72;;;5.77;41.96
52797;BME280;38666;43.348;12.584;2023-02-08T13:07:25;97076.88;;;6.23;41.51
52797;BME280;38666;43.348;12.584;2023-02-08T13:12:41;97084.13;;;5.85;43.42
52797;BME280;38666;43.348;12.584;2023-02-08T13:15:14;97082.66;;;4.81;46.53
52797;BME280;38666;43.348;12.584;2023-02-08T13:18:23;97097.78;;;3.95;49.87
52797;BME280;38666;43.348;12.584;2023-02-08T13:20:51;97086.97;;;3.86;50.36
52797;BME280;38666;43.348;12.584;2023-02-08T13:23:27;97093.13;;;3.95;51.81
52797;BME280;38666;43.348;12.584;2023-02-08T13:25:59;97089.53;;;4.39;51.23
52797;BME280;38666;43.348;12.584;2023-02-08T13:28:27;97100.28;;;4.57;51.00
52797;BME280;38666;43.348;12.584;2023-02-08T13:34:03;97096.03;;;3.72;54.02
52797;BME280;38666;43.348;12.584;2023-02-08T13:36:35;97100.25;;;4.18;55.13
52797;BME280;38666;43.348;12.584;2023-02-08T13:39:05;97101.09;;;4.57;53.43
52797;BME280;38666;43.348;12.584;2023-02-08T13:41:32;97101.34;;;4.26;54.37
52797;BME280;38666;43.348;12.584;2023-02-08T13:44:03;97109.22;;;3.21;55.48
52797;BME280;38666;43.348;12.584;2023-02-08T13:46:46;97104.16;;;3.55;55.01
52797;BME280;38666;43.348;12.584;2023-02-08T14:03:31;97114.47;;;3.53;59.34
52797;BME280;38666;43.348;12.584;2023-02-08T14:08:45;97106.22;;;3.93;58.20
52797;BME280;38666;43.348;12.584;2023-02-08T14:14:00;97108.88;;;4.59;54.66
52797;BME280;38666;43.348;12.584;2023-02-08T14:16:32;97102.78;;;5.65;52.30
52797;BME280;38666;43.348;12.584;2023-02-08T14:19:05;97108.66;;;6.23;49.08
52797;BME280;38666;43.348;12.584;2023-02-08T14:26:50;97118.19;;;7.70;44.19
52797;BME280;38666;43.348;12.584;2023-02-08T14:29:29;97096.53;;;7.74;44.47
52797;BME280;38666;43.348;12.584;2023-02-08T14:31:56;97097.53;;;7.41;44.75
52797;BME280;38666;43.348;12.584;2023-02-08T14:34:30;97100.22;;;7.53;45.91
52797;BME280;38666;43.348;12.584;2023-02-08T14:37:24;97090.44;;;10.69;39.64
52797;BME280;38666;43.348;12.584;2023-02-08T14:42:57;97095.94;;;10.02;38.13
52797;BME280;38666;43.348;12.584;2023-02-08T14:45:34;97099.53;;;9.11;40.69
52797;BME280;38666;43.348;12.584;2023-02-08T14:50:40;97104.41;;;7.63;44.16
52797;BME280;38666;43.348;12.584;2023-02-08T14:53:18;97107.47;;;7.62;45.52
52797;BME280;38666;43.348;12.584;2023-02-08T14:55:57;97111.78;;;7.50;44.60
52797;BME280;38666;43.348;12.584;2023-02-08T14:58:30;97094.47;;;6.89;46.04
52797;BME280;38666;43.348;12.584;2023-02-08T15:01:00;97092.88;;;6.04;48.56
52797;BME280;38666;43.348;12.584;2023-02-08T15:03:29;97113.69;;;5.35;51.39
52797;BME280;38666;43.348;12.584;2023-02-08T15:08:32;97113.72;;;5.57;49.42
52797;BME280;38666;43.348;12.584;2023-02-08T15:10:57;97109.41;;;5.34;51.28
52797;BME280;38666;43.348;12.584;2023-02-08T15:13:23;97111.88;;;4.66;51.96
52797;BME280;38666;43.348;12.584;2023-02-08T15:15:54;97103.44;;;4.20;54.76
52797;BME280;38666;43.348;12.584;2023-02-08T15:18:24;97104.28;;;4.51;54.49
52797;BME280;38666;43.348;12.584;2023-02-08T15:21:05;97095.28;;;3.72;54.51
52797;BME280;38666;43.348;12.584;2023-02-08T15:23:31;97114.47;;;3.70;55.13
52797;BME280;38666;43.348;12.584;2023-02-08T15:26:02;97114.72;;;4.13;54.21
52797;BME280;38666;43.348;12.584;2023-02-08T15:28:30;97107.19;;;3.53;55.49
52797;BME280;38666;43.348;12.584;2023-02-08T15:31:06;97107.97;;;3.27;56.92
52797;BME280;38666;43.348;12.584;2023-02-08T15:33:39;97108.28;;;3.25;56.22
52797;BME280;38666;43.348;12.584;2023-02-08T15:38:40;97097.38;;;2.32;61.00
52797;BME280;38666;43.348;12.584;2023-02-08T15:41:14;97100.63;;;3.01;57.85
52797;BME280;38666;43.348;12.584;2023-02-08T15:43:41;97099.69;;;3.15;57.14
52797;BME280;38666;43.348;12.584;2023-02-08T15:46:22;97099.88;;;3.27;57.76
52797;BME280;38666;43.348;12.584;2023-02-08T15:48:49;97099.06;;;3.09;57.60
52797;BME280;38666;43.348;12.584;2023-02-08T15:51:16;97097.09;;;2.83;58.16
52797;BME280;38666;43.348;12.584;2023-02-08T15:53:46;97106.31;;;2.91;58.37
52797;BME280;38666;43.348;12.584;2023-02-08T15:56:19;97107.53;;;2.67;60.56
52797;BME280;38666;43.348;12.584;2023-02-08T15:58:55;97111.13;;;2.62;59.99
52797;BME280;38666;43.348;12.584;2023-02-08T16:01:21;97106.44;;;2.76;58.51
52797;BME280;38666;43.348;12.584;2023-02-08T16:03:48;97112.88;;;2.58;57.82
52797;BME280;38666;43.348;12.584;2023-02-08T16:06:24;97107.91;;;2.42;58.33
52797;BME280;38666;43.348;12.584;2023-02-08T16:08:51;97106.94;;;2.38;59.49
52797;BME280;38666;43.348;12.584;2023-02-08T16:11:23;97114.91;;;2.11;60.93
52797;BME280;38666;43.348;12.584;2023-02-08T16:13:52;97109.31;;;2.08;59.65
52797;BME280;38666;43.348;12.584;2023-02-08T16:19:25;97112.72;;;1.90;60.69
52797;BME280;38666;43.348;12.584;2023-02-08T16:21:51;97112.22;;;1.88;60.85
52797;BME280;38666;43.348;12.584;2023-02-08T16:24:23;97113.31;;;1.64;61.45
52797;BME280;38666;43.348;12.584;2023-02-08T16:29:37;97116.56;;;1.52;60.73
52797;BME280;38666;43.348;12.584;2023-02-08T16:32:26;97119.78;;;1.40;61.49
52797;BME280;38666;43.348;12.584;2023-02-08T16:34:53;97105.47;;;1.31;61.04
52797;BME280;38666;43.348;12.584;2023-02-08T16:37:29;97121.81;;;1.35;61.60
52797;BME280;38666;43.348;12.584;2023-02-08T16:39:57;97107.84;;;1.32;61.49
52797;BME280;38666;43.348;12.584;2023-02-08T16:42:31;97103.53;;;1.08;62.86
52797;BME280;38666;43.348;12.584;2023-02-08T16:45:20;97120.03;;;1.16;62.31
52797;BME280;38666;43.348;12.584;2023-02-08T16:47:47;97118.44;;;1.15;60.87
52797;BME280;38666;43.348;12.584;2023-02-08T16:50:25;97110.72;;;0.99;61.32
52797;BME280;38666;43.348;12.584;2023-02-08T16:53:02;97111.84;;;1.35;59.89
52797;BME280;38666;43.348;12.584;2023-02-08T16:55:30;97112.88;;;1.11;61.00
52797;BME280;38666;43.348;12.584;2023-02-08T16:57:57;97111.25;;;1.24;60.29
52797;BME280;38666;43.348;12.584;2023-02-08T17:00:25;97120.84;;;1.16;61.01
52797;BME280;38666;43.348;12.584;2023-02-08T17:02:52;97121.38;;;1.04;60.90
52797;BME280;38666;43.348;12.584;2023-02-08T17:05:20;97112.50;;;1.04;61.21
52797;BME280;38666;43.348;12.584;2023-02-08T17:07:45;97118.28;;;0.97;60.33
52797;BME280;38666;43.348;12.584;2023-02-08T17:10:22;97129.22;;;1.15;60.02
52797;BME280;38666;43.348;12.584;2023-02-08T17:12:48;97121.66;;;1.17;59.96
52797;BME280;38666;43.348;12.584;2023-02-08T17:15:14;97125.63;;;1.05;60.68
52797;BME280;38666;43.348;12.584;2023-02-08T17:17:40;97124.28;;;0.94;59.37
52797;BME280;38666;43.348;12.584;2023-02-08T17:20:22;97123.28;;;0.62;60.92
52797;BME280;38666;43.348;12.584;2023-02-08T17:22:49;97129.38;;;0.67;60.96
52797;BME280;38666;43.348;12.584;2023-02-08T17:25:15;97134.53;;;0.64;61.17
52797;BME280;38666;43.348;12.584;2023-02-08T17:27:51;97139.31;;;0.67;61.38
52797;BME280;38666;43.348;12.584;2023-02-08T17:32:50;97135.91;;;0.75;60.60
52797;BME280;38666;43.348;12.584;2023-02-08T17:35:17;97150.47;;;0.74;60.23
52797;BME280;38666;43.348;12.584;2023-02-08T17:37:45;97129.34;;;0.81;60.31
52797;BME280;38666;43.348;12.584;2023-02-08T17:40:12;97146.41;;;0.91;59.66
52797;BME280;38666;43.348;12.584;2023-02-08T17:42:38;97131.16;;;0.72;60.04
52797;BME280;38666;43.348;12.584;2023-02-08T17:45:05;97139.41;;;0.90;59.62
52797;BME280;38666;43.348;12.584;2023-02-08T17:47:31;97138.69;;;0.98;58.79
52797;BME280;38666;43.348;12.584;2023-02-08T17:49:57;97144.78;;;0.90;59.58
52797;BME280;38666;43.348;12.584;2023-02-08T17:52:23;97130.06;;;0.87;58.60
52797;BME280;38666;43.348;12.584;2023-02-08T17:54:48;97139.81;;;0.97;58.95
52797;BME280;38666;43.348;12.584;2023-02-08T17:57:13;97133.81;;;1.00;58.06
52797;BME280;38666;43.348;12.584;2023-02-08T17:59:39;97139.81;;;0.97;57.15
52797;BME280;38666;43.348;12.584;2023-02-08T18:02:05;97147.19;;;0.77;59.46
52797;BME280;38666;43.348;12.584;2023-02-08T18:04:30;97137.03;;;0.60;58.60
52797;BME280;38666;43.348;12.584;2023-02-08T18:06:56;97140.53;;;0.89;58.10
52797;BME280;38666;43.348;12.584;2023-02-08T18:09:22;97135.03;;;0.66;59.22
52797;BME280;38666;43.348;12.584;2023-02-08T18:11:48;97144.78;;;0.90;58.21
52797;BME280;38666;43.348;12.584;2023-02-08T18:14:13;97143.59;;;0.96;57.27
52797;BME280;38666;43.348;12.584;2023-02-08T18:16:39;97143.59;;;0.68;59.13
52797;BME280;38666;43.348;12.584;2023-02-08T18:19:04;97150.78;;;0.58;59.38
52797;BME280;38666;43.348;12.584;2023-02-08T18:21:30;97149.25;;;0.52;58.26
52797;BME280;38666;43.348;12.584;2023-02-08T18:24:01;97145.31;;;0.78;56.75
52797;BME280;38666;43.348;12.584;2023-02-08T18:26:26;97147.69;;;0.51;56.28
52797;BME280;38666;43.348;12.584;2023-02-08T18:28:52;97153.34;;;0.35;57.69
52797;BME280;38666;43.348;12.584;2023-02-08T18:31:18;97135.22;;;0.55;56.30
52797;BME280;38666;43.348;12.584;2023-02-08T18:33:47;97153.16;;;0.60;55.79
52797;BME280;38666;43.348;12.584;2023-02-08T18:36:13;97156.44;;;0.57;56.96
52797;BME280;38666;43.348;12.584;2023-02-08T18:38:43;97160.69;;;0.30;57.61
52797;BME280;38666;43.348;12.584;2023-02-08T18:41:15;97145.94;;;0.27;58.02
52797;BME280;38666;43.348;12.584;2023-02-08T18:43:43;97153.44;;;0.44;56.51
52797;BME280;38666;43.348;12.584;2023-02-08T18:46:12;97161.75;;;0.29;57.67
52797;BME280;38666;43.348;12.584;2023-02-08T18:48:39;97155.28;;;0.16;57.37
52797;BME280;38666;43.348;12.584;2023-02-08T18:51:06;97152.50;;;0.21;57.34
